sensor_id;sensor_type;location;lat;lon;timestamp;pressure;altitude;pressure_sealevel;temperature;humidity
11329;BME280;5719;42.714;23.732;2022-07-25T00:01:56;94495.16;;;23.97;76.26
11329;BME280;5719;42.714;23.732;2022-07-25T00:04:22;94501.88;;;23.99;76.30
11329;BME280;5719;42.714;23.732;2022-07-25T00:06:50;94495.59;;;24.00;76.69
11329;BME280;5719;42.714;23.732;2022-07-25T00:09:18;94493.84;;;23.86;77.24
11329;BME280;5719;42.714;23.732;2022-07-25T00:11:45;94492.59;;;23.82;77.55
11329;BME280;5719;42.714;23.732;2022-07-25T00:14:12;94488.00;;;23.69;78.00
11329;BME280;5719;42.714;23.732;2022-07-25T00:16:39;94491.84;;;23.67;78.59
11329;BME280;5719;42.714;23.732;2022-07-25T00:19:06;94491.84;;;23.67;79.21
11329;BME280;5719;42.714;23.732;2022-07-25T00:21:33;94491.47;;;23.70;78.54
11329;BME280;5719;42.714;23.732;2022-07-25T00:23:59;94496.25;;;23.60;79.81
11329;BME280;5719;42.714;23.732;2022-07-25T00:26:28;94496.00;;;23.55;80.28
11329;BME280;5719;42.714;23.732;2022-07-25T00:28:55;94495.38;;;23.53;80.14
11329;BME280;5719;42.714;23.732;2022-07-25T00:31:22;94497.44;;;23.57;79.96
11329;BME280;5719;42.714;23.732;2022-07-25T00:33:48;94483.06;;;23.60;79.29
11329;BME280;5719;42.714;23.732;2022-07-25T00:36:15;94477.78;;;23.60;79.17
11329;BME280;5719;42.714;23.732;2022-07-25T00:38:42;94479.66;;;23.66;79.19
11329;BME280;5719;42.714;23.732;2022-07-25T00:41:09;94478.38;;;23.62;79.06
11329;BME280;5719;42.714;23.732;2022-07-25T00:43:41;94480.03;;;23.63;78.71
11329;BME280;5719;42.714;23.732;2022-07-25T00:46:11;94477.66;;;23.68;78.59
11329;BME280;5719;42.714;23.732;2022-07-25T00:48:38;94471.59;;;23.74;78.86
11329;BME280;5719;42.714;23.732;2022-07-25T00:51:05;94477.28;;;23.71;78.77
11329;BME280;5719;42.714;23.732;2022-07-25T00:53:33;94472.03;;;23.77;78.89
11329;BME280;5719;42.714;23.732;2022-07-25T00:56:00;94478.75;;;23.80;77.84
11329;BME280;5719;42.714;23.732;2022-07-25T00:58:27;94477.09;;;23.79;78.46
11329;BME280;5719;42.714;23.732;2022-07-25T01:00:56;94483.03;;;23.81;78.98
11329;BME280;5719;42.714;23.732;2022-07-25T01:03:23;94481.16;;;23.75;78.45
11329;BME280;5719;42.714;23.732;2022-07-25T01:05:50;94475.88;;;23.75;78.02
11329;BME280;5719;42.714;23.732;2022-07-25T01:08:18;94476.56;;;23.62;78.66
11329;BME280;5719;42.714;23.732;2022-07-25T01:10:45;94479.03;;;23.64;78.42
11329;BME280;5719;42.714;23.732;2022-07-25T01:13:12;94475.13;;;23.60;79.44
11329;BME280;5719;42.714;23.732;2022-07-25T01:15:41;94484.38;;;23.49;79.73
11329;BME280;5719;42.714;23.732;2022-07-25T01:18:09;94477.75;;;23.38;79.73
11329;BME280;5719;42.714;23.732;2022-07-25T01:20:37;94487.28;;;23.39;79.94
11329;BME280;5719;42.714;23.732;2022-07-25T01:23:04;94490.69;;;23.33;80.42
11329;BME280;5719;42.714;23.732;2022-07-25T01:25:31;94491.06;;;23.30;80.72
11329;BME280;5719;42.714;23.732;2022-07-25T01:27:58;94489.97;;;23.25;80.50
11329;BME280;5719;42.714;23.732;2022-07-25T01:30:25;94490.53;;;23.20;81.27
11329;BME280;5719;42.714;23.732;2022-07-25T01:32:52;94491.03;;;23.09;82.04
11329;BME280;5719;42.714;23.732;2022-07-25T01:35:19;94488.75;;;23.06;82.06
11329;BME280;5719;42.714;23.732;2022-07-25T01:37:47;94475.59;;;22.91;83.15
11329;BME280;5719;42.714;23.732;2022-07-25T01:40:14;94481.25;;;22.74;85.40
11329;BME280;5719;42.714;23.732;2022-07-25T01:42:42;94479.44;;;22.60;86.23
11329;BME280;5719;42.714;23.732;2022-07-25T01:45:09;94471.72;;;22.43;87.70
11329;BME280;5719;42.714;23.732;2022-07-25T01:47:37;94471.06;;;22.27;89.31
11329;BME280;5719;42.714;23.732;2022-07-25T01:50:05;94470.97;;;22.20;89.24
11329;BME280;5719;42.714;23.732;2022-07-25T01:52:32;94470.38;;;22.18;89.40
11329;BME280;5719;42.714;23.732;2022-07-25T01:55:00;94461.19;;;22.14;89.21
11329;BME280;5719;42.714;23.732;2022-07-25T01:57:27;94457.81;;;22.06;89.47
11329;BME280;5719;42.714;23.732;2022-07-25T01:59:54;94469.44;;;22.11;89.15
11329;BME280;5719;42.714;23.732;2022-07-25T02:02:21;94482.41;;;21.98;90.11
11329;BME280;5719;42.714;23.732;2022-07-25T02:04:47;94474.91;;;21.87;91.44
11329;BME280;5719;42.714;23.732;2022-07-25T02:07:14;94476.81;;;21.56;93.86
11329;BME280;5719;42.714;23.732;2022-07-25T02:09:41;94477.88;;;21.46;94.18
11329;BME280;5719;42.714;23.732;2022-07-25T02:12:09;94473.53;;;21.53;94.10
11329;BME280;5719;42.714;23.732;2022-07-25T02:14:36;94471.56;;;21.56;93.79
11329;BME280;5719;42.714;23.732;2022-07-25T02:17:03;94471.19;;;21.59;94.17
11329;BME280;5719;42.714;23.732;2022-07-25T02:19:31;94469.19;;;21.61;94.03
11329;BME280;5719;42.714;23.732;2022-07-25T02:21:58;94467.28;;;21.55;94.65
11329;BME280;5719;42.714;23.732;2022-07-25T02:24:24;94467.94;;;21.34;95.95
11329;BME280;5719;42.714;23.732;2022-07-25T02:26:51;94473.31;;;21.40;95.17
11329;BME280;5719;42.714;23.732;2022-07-25T02:29:20;94461.16;;;21.39;95.34
11329;BME280;5719;42.714;23.732;2022-07-25T02:31:46;94457.84;;;21.45;94.70
11329;BME280;5719;42.714;23.732;2022-07-25T02:34:13;94461.72;;;21.49;94.35
11329;BME280;5719;42.714;23.732;2022-07-25T02:36:40;94458.22;;;21.57;93.75
11329;BME280;5719;42.714;23.732;2022-07-25T02:39:07;94470.03;;;21.61;92.62
11329;BME280;5719;42.714;23.732;2022-07-25T02:41:34;94473.38;;;21.55;92.41
11329;BME280;5719;42.714;23.732;2022-07-25T02:44:01;94467.00;;;21.49;92.72
11329;BME280;5719;42.714;23.732;2022-07-25T02:46:29;94460.13;;;21.48;92.21
11329;BME280;5719;42.714;23.732;2022-07-25T02:48:56;94463.72;;;21.47;92.26
11329;BME280;5719;42.714;23.732;2022-07-25T02:51:23;94469.41;;;21.36;93.39
11329;BME280;5719;42.714;23.732;2022-07-25T02:53:50;94462.63;;;21.42;92.96
11329;BME280;5719;42.714;23.732;2022-07-25T02:56:17;94462.91;;;21.47;92.88
11329;BME280;5719;42.714;23.732;2022-07-25T02:58:44;94462.63;;;21.42;92.86
11329;BME280;5719;42.714;23.732;2022-07-25T03:01:11;94463.09;;;21.45;92.25
11329;BME280;5719;42.714;23.732;2022-07-25T03:03:39;94465.44;;;21.40;92.51
11329;BME280;5719;42.714;23.732;2022-07-25T03:06:06;94469.91;;;21.32;93.57
11329;BME280;5719;42.714;23.732;2022-07-25T03:08:33;94472.44;;;21.25;94.13
11329;BME280;5719;42.714;23.732;2022-07-25T03:11:00;94478.00;;;21.30;93.71
11329;BME280;5719;42.714;23.732;2022-07-25T03:13:27;94476.28;;;21.15;93.83
11329;BME280;5719;42.714;23.732;2022-07-25T03:15:54;94483.91;;;21.01;94.42
11329;BME280;5719;42.714;23.732;2022-07-25T03:18:21;94478.84;;;20.92;94.56
11329;BME280;5719;42.714;23.732;2022-07-25T03:20:49;94472.78;;;20.91;94.84
11329;BME280;5719;42.714;23.732;2022-07-25T03:23:16;94462.50;;;20.82;95.59
11329;BME280;5719;42.714;23.732;2022-07-25T03:25:43;94460.91;;;20.73;96.54
11329;BME280;5719;42.714;23.732;2022-07-25T03:28:10;94473.75;;;20.60;96.50
11329;BME280;5719;42.714;23.732;2022-07-25T03:30:37;94472.53;;;20.39;98.72
11329;BME280;5719;42.714;23.732;2022-07-25T03:33:04;94477.94;;;20.46;98.56
11329;BME280;5719;42.714;23.732;2022-07-25T03:35:31;94478.41;;;20.49;97.04
11329;BME280;5719;42.714;23.732;2022-07-25T03:37:59;94472.31;;;20.49;97.66
11329;BME280;5719;42.714;23.732;2022-07-25T03:40:26;94479.25;;;20.42;97.67
11329;BME280;5719;42.714;23.732;2022-07-25T03:42:53;94476.75;;;20.48;97.18
11329;BME280;5719;42.714;23.732;2022-07-25T03:45:19;94485.31;;;20.50;97.02
11329;BME280;5719;42.714;23.732;2022-07-25T03:47:46;94484.47;;;20.50;97.23
11329;BME280;5719;42.714;23.732;2022-07-25T03:50:13;94487.41;;;20.55;96.20
11329;BME280;5719;42.714;23.732;2022-07-25T03:52:40;94486.72;;;20.61;95.89
11329;BME280;5719;42.714;23.732;2022-07-25T03:55:10;94483.31;;;20.52;96.35
11329;BME280;5719;42.714;23.732;2022-07-25T03:57:37;94478.91;;;20.45;97.32
11329;BME280;5719;42.714;23.732;2022-07-25T04:00:06;94481.41;;;20.38;97.97
11329;BME280;5719;42.714;23.732;2022-07-25T04:02:34;94483.69;;;20.41;97.75
11329;BME280;5719;42.714;23.732;2022-07-25T04:05:02;94492.50;;;20.48;97.00
11329;BME280;5719;42.714;23.732;2022-07-25T04:07:29;94483.19;;;20.38;97.35
11329;BME280;5719;42.714;23.732;2022-07-25T04:09:56;94484.38;;;20.35;97.77
11329;BME280;5719;42.714;23.732;2022-07-25T04:12:25;94472.38;;;20.33;97.93
11329;BME280;5719;42.714;23.732;2022-07-25T04:14:52;94480.25;;;20.25;98.11
11329;BME280;5719;42.714;23.732;2022-07-25T04:17:19;94479.09;;;20.27;97.81
11329;BME280;5719;42.714;23.732;2022-07-25T04:19:46;94476.84;;;20.32;98.36
11329;BME280;5719;42.714;23.732;2022-07-25T04:22:13;94474.34;;;20.31;98.24
11329;BME280;5719;42.714;23.732;2022-07-25T04:24:40;94471.38;;;20.26;98.83
11329;BME280;5719;42.714;23.732;2022-07-25T04:27:06;94470.91;;;20.30;98.72
11329;BME280;5719;42.714;23.732;2022-07-25T04:29:35;94474.22;;;20.32;98.84
11329;BME280;5719;42.714;23.732;2022-07-25T04:32:02;94479.13;;;20.35;98.78
11329;BME280;5719;42.714;23.732;2022-07-25T04:34:29;94476.16;;;20.38;98.58
11329;BME280;5719;42.714;23.732;2022-07-25T04:36:55;94478.75;;;20.46;98.37
11329;BME280;5719;42.714;23.732;2022-07-25T04:39:22;94481.81;;;20.58;98.19
11329;BME280;5719;42.714;23.732;2022-07-25T04:41:49;94483.25;;;20.69;97.61
11329;BME280;5719;42.714;23.732;2022-07-25T04:44:16;94482.34;;;20.53;98.26
11329;BME280;5719;42.714;23.732;2022-07-25T04:46:45;94477.72;;;20.55;98.84
11329;BME280;5719;42.714;23.732;2022-07-25T04:49:11;94476.69;;;20.65;98.91
11329;BME280;5719;42.714;23.732;2022-07-25T04:51:38;94482.41;;;20.76;99.79
11329;BME280;5719;42.714;23.732;2022-07-25T04:54:05;94487.09;;;20.89;99.89
11329;BME280;5719;42.714;23.732;2022-07-25T04:56:33;94480.25;;;21.02;99.92
11329;BME280;5719;42.714;23.732;2022-07-25T04:59:00;94491.44;;;21.13;100.00
11329;BME280;5719;42.714;23.732;2022-07-25T05:01:27;94472.94;;;20.98;100.00
11329;BME280;5719;42.714;23.732;2022-07-25T05:03:56;94489.75;;;21.20;100.00
11329;BME280;5719;42.714;23.732;2022-07-25T05:06:23;94486.72;;;21.31;100.00
11329;BME280;5719;42.714;23.732;2022-07-25T05:08:52;94487.22;;;21.26;100.00
11329;BME280;5719;42.714;23.732;2022-07-25T05:21:49;94493.16;;;22.84;90.08
11329;BME280;5719;42.714;23.732;2022-07-25T05:24:16;94499.63;;;22.82;89.45
11329;BME280;5719;42.714;23.732;2022-07-25T05:26:43;94496.97;;;22.82;89.83
11329;BME280;5719;42.714;23.732;2022-07-25T05:29:10;94495.63;;;22.86;90.22
11329;BME280;5719;42.714;23.732;2022-07-25T05:31:37;94501.41;;;22.96;89.58
11329;BME280;5719;42.714;23.732;2022-07-25T05:34:04;94502.19;;;23.11;88.21
11329;BME280;5719;42.714;23.732;2022-07-25T05:36:31;94498.31;;;23.28;86.91
11329;BME280;5719;42.714;23.732;2022-07-25T05:38:59;94489.66;;;23.49;85.91
11329;BME280;5719;42.714;23.732;2022-07-25T05:41:26;94490.66;;;23.69;85.04
11329;BME280;5719;42.714;23.732;2022-07-25T05:43:53;94489.19;;;23.88;85.03
11329;BME280;5719;42.714;23.732;2022-07-25T05:46:20;94495.44;;;24.08;83.61
11329;BME280;5719;42.714;23.732;2022-07-25T05:48:47;94495.19;;;24.24;82.37
11329;BME280;5719;42.714;23.732;2022-07-25T05:51:14;94478.19;;;24.33;81.35
11329;BME280;5719;42.714;23.732;2022-07-25T05:53:41;94476.03;;;24.50;80.58
11329;BME280;5719;42.714;23.732;2022-07-25T05:56:09;94478.31;;;24.60;80.87
11329;BME280;5719;42.714;23.732;2022-07-25T05:58:36;94477.16;;;24.69;79.10
11329;BME280;5719;42.714;23.732;2022-07-25T06:13:51;94473.41;;;25.52;73.07
11329;BME280;5719;42.714;23.732;2022-07-25T06:16:19;94472.41;;;25.53;73.27
11329;BME280;5719;42.714;23.732;2022-07-25T06:18:46;94470.75;;;25.52;72.63
11329;BME280;5719;42.714;23.732;2022-07-25T06:21:13;94471.31;;;25.47;73.27
11329;BME280;5719;42.714;23.732;2022-07-25T06:23:40;94473.78;;;25.49;72.67
11329;BME280;5719;42.714;23.732;2022-07-25T06:26:07;94473.56;;;25.37;71.88
11329;BME280;5719;42.714;23.732;2022-07-25T06:28:35;94468.25;;;25.30;72.77
11329;BME280;5719;42.714;23.732;2022-07-25T06:31:04;94469.31;;;25.43;71.19
11329;BME280;5719;42.714;23.732;2022-07-25T06:33:31;94470.09;;;25.43;71.30
11329;BME280;5719;42.714;23.732;2022-07-25T06:35:58;94465.47;;;25.58;71.15
11329;BME280;5719;42.714;23.732;2022-07-25T06:38:24;94455.50;;;25.80;71.55
11329;BME280;5719;42.714;23.732;2022-07-25T06:40:51;94461.41;;;26.02;70.19
11329;BME280;5719;42.714;23.732;2022-07-25T06:43:18;94462.03;;;26.04;67.53
11329;BME280;5719;42.714;23.732;2022-07-25T06:45:45;94451.25;;;26.25;68.60
11329;BME280;5719;42.714;23.732;2022-07-25T06:48:14;94451.00;;;26.40;64.69
11329;BME280;5719;42.714;23.732;2022-07-25T06:50:41;94441.41;;;26.52;67.38
11329;BME280;5719;42.714;23.732;2022-07-25T06:53:08;94449.47;;;26.83;61.41
11329;BME280;5719;42.714;23.732;2022-07-25T06:55:35;94448.94;;;27.12;59.78
11329;BME280;5719;42.714;23.732;2022-07-25T06:58:02;94450.06;;;27.29;58.92
11329;BME280;5719;42.714;23.732;2022-07-25T07:00:29;94451.00;;;27.48;56.34
11329;BME280;5719;42.714;23.732;2022-07-25T07:02:57;94449.31;;;27.60;55.40
11329;BME280;5719;42.714;23.732;2022-07-25T07:05:28;94438.34;;;27.50;55.21
11329;BME280;5719;42.714;23.732;2022-07-25T07:07:56;94439.41;;;27.74;54.83
11329;BME280;5719;42.714;23.732;2022-07-25T07:10:24;94438.56;;;27.73;53.17
11329;BME280;5719;42.714;23.732;2022-07-25T07:13:02;94442.34;;;27.59;53.97
11329;BME280;5719;42.714;23.732;2022-07-25T07:15:29;94440.97;;;27.82;54.95
11329;BME280;5719;42.714;23.732;2022-07-25T07:17:56;94442.88;;;27.99;55.02
11329;BME280;5719;42.714;23.732;2022-07-25T07:20:27;94445.09;;;28.02;55.53
11329;BME280;5719;42.714;23.732;2022-07-25T07:22:54;94437.25;;;28.14;54.40
11329;BME280;5719;42.714;23.732;2022-07-25T07:25:21;94444.41;;;28.13;53.37
11329;BME280;5719;42.714;23.732;2022-07-25T07:27:49;94442.38;;;28.15;53.19
11329;BME280;5719;42.714;23.732;2022-07-25T07:30:17;94443.94;;;28.23;53.92
11329;BME280;5719;42.714;23.732;2022-07-25T07:32:44;94426.34;;;28.22;53.93
11329;BME280;5719;42.714;23.732;2022-07-25T07:35:12;94437.06;;;28.34;53.62
11329;BME280;5719;42.714;23.732;2022-07-25T07:37:43;94431.78;;;28.27;53.24
11329;BME280;5719;42.714;23.732;2022-07-25T07:40:12;94427.94;;;28.66;53.14
11329;BME280;5719;42.714;23.732;2022-07-25T07:42:43;94438.13;;;29.05;51.84
11329;BME280;5719;42.714;23.732;2022-07-25T07:45:12;94437.22;;;29.11;50.82
11329;BME280;5719;42.714;23.732;2022-07-25T07:47:39;94437.34;;;29.35;50.51
11329;BME280;5719;42.714;23.732;2022-07-25T07:50:07;94430.84;;;29.31;48.95
11329;BME280;5719;42.714;23.732;2022-07-25T07:52:36;94427.81;;;29.57;49.03
11329;BME280;5719;42.714;23.732;2022-07-25T07:55:05;94431.50;;;29.86;48.29
11329;BME280;5719;42.714;23.732;2022-07-25T07:57:50;94418.28;;;29.49;48.91
11329;BME280;5719;42.714;23.732;2022-07-25T08:00:18;94425.31;;;29.32;48.15
11329;BME280;5719;42.714;23.732;2022-07-25T08:02:47;94433.50;;;29.31;49.49
11329;BME280;5719;42.714;23.732;2022-07-25T08:05:19;94427.16;;;29.13;49.36
11329;BME280;5719;42.714;23.732;2022-07-25T08:07:48;94430.69;;;28.96;50.87
11329;BME280;5719;42.714;23.732;2022-07-25T08:10:19;94436.66;;;28.91;49.94
11329;BME280;5719;42.714;23.732;2022-07-25T08:12:48;94437.88;;;28.77;50.16
11329;BME280;5719;42.714;23.732;2022-07-25T08:15:16;94432.66;;;28.82;50.57
11329;BME280;5719;42.714;23.732;2022-07-25T08:17:44;94433.47;;;28.64;50.39
11329;BME280;5719;42.714;23.732;2022-07-25T08:20:11;94434.34;;;28.40;51.78
11329;BME280;5719;42.714;23.732;2022-07-25T08:22:40;94424.72;;;28.39;52.00
11329;BME280;5719;42.714;23.732;2022-07-25T08:25:08;94430.28;;;28.56;52.41
11329;BME280;5719;42.714;23.732;2022-07-25T08:27:37;94426.25;;;28.71;50.62
11329;BME280;5719;42.714;23.732;2022-07-25T08:30:06;94430.44;;;28.97;49.72
11329;BME280;5719;42.714;23.732;2022-07-25T08:32:34;94436.13;;;29.01;47.42
11329;BME280;5719;42.714;23.732;2022-07-25T08:35:11;94431.00;;;29.17;46.46
11329;BME280;5719;42.714;23.732;2022-07-25T08:37:41;94433.88;;;29.34;46.84
11329;BME280;5719;42.714;23.732;2022-07-25T08:40:11;94432.28;;;29.45;45.74
11329;BME280;5719;42.714;23.732;2022-07-25T08:42:40;94429.88;;;29.85;45.99
11329;BME280;5719;42.714;23.732;2022-07-25T08:45:09;94423.88;;;30.12;44.38
11329;BME280;5719;42.714;23.732;2022-07-25T08:47:38;94427.25;;;30.54;42.96
11329;BME280;5719;42.714;23.732;2022-07-25T08:50:08;94423.09;;;30.24;42.11
11329;BME280;5719;42.714;23.732;2022-07-25T08:52:37;94429.66;;;30.33;42.28
11329;BME280;5719;42.714;23.732;2022-07-25T08:55:06;94424.47;;;30.38;41.71
11329;BME280;5719;42.714;23.732;2022-07-25T08:57:35;94434.09;;;30.62;41.96
11329;BME280;5719;42.714;23.732;2022-07-25T09:00:08;94420.59;;;30.80;41.36
11329;BME280;5719;42.714;23.732;2022-07-25T09:02:36;94423.06;;;31.22;41.60
11329;BME280;5719;42.714;23.732;2022-07-25T09:05:04;94421.25;;;31.67;40.95
11329;BME280;5719;42.714;23.732;2022-07-25T09:07:32;94425.47;;;31.96;40.56
11329;BME280;5719;42.714;23.732;2022-07-25T09:10:11;94419.81;;;31.93;38.99
11329;BME280;5719;42.714;23.732;2022-07-25T09:12:39;94425.72;;;31.50;39.92
11329;BME280;5719;42.714;23.732;2022-07-25T09:15:09;94433.28;;;31.25;40.37
11329;BME280;5719;42.714;23.732;2022-07-25T09:17:36;94422.19;;;31.04;40.80
11329;BME280;5719;42.714;23.732;2022-07-25T09:20:04;94416.78;;;30.64;41.58
11329;BME280;5719;42.714;23.732;2022-07-25T09:22:42;94417.63;;;30.53;41.54
11329;BME280;5719;42.714;23.732;2022-07-25T09:25:19;94413.09;;;30.54;41.73
11329;BME280;5719;42.714;23.732;2022-07-25T09:27:46;94416.00;;;30.41;42.16
11329;BME280;5719;42.714;23.732;2022-07-25T09:30:15;94410.56;;;30.12;43.60
11329;BME280;5719;42.714;23.732;2022-07-25T09:32:43;94409.84;;;30.05;42.61
11329;BME280;5719;42.714;23.732;2022-07-25T09:35:10;94416.56;;;30.08;42.65
11329;BME280;5719;42.714;23.732;2022-07-25T09:37:37;94410.31;;;29.91;41.43
11329;BME280;5719;42.714;23.732;2022-07-25T09:40:11;94407.41;;;30.04;41.27
11329;BME280;5719;42.714;23.732;2022-07-25T09:42:39;94400.00;;;30.52;42.05
11329;BME280;5719;42.714;23.732;2022-07-25T09:45:09;94416.06;;;30.92;42.41
11329;BME280;5719;42.714;23.732;2022-07-25T09:47:50;94412.28;;;31.17;42.11
11329;BME280;5719;42.714;23.732;2022-07-25T09:50:18;94391.56;;;31.52;40.92
11329;BME280;5719;42.714;23.732;2022-07-25T09:52:49;94398.09;;;31.89;39.71
11329;BME280;5719;42.714;23.732;2022-07-25T09:55:16;94396.41;;;32.17;38.88
11329;BME280;5719;42.714;23.732;2022-07-25T09:57:45;94406.16;;;32.44;39.31
11329;BME280;5719;42.714;23.732;2022-07-25T10:00:17;94406.53;;;32.70;39.25
11329;BME280;5719;42.714;23.732;2022-07-25T10:02:54;94401.75;;;32.93;38.18
11329;BME280;5719;42.714;23.732;2022-07-25T10:05:34;94390.09;;;33.04;37.67
11329;BME280;5719;42.714;23.732;2022-07-25T10:08:06;94401.63;;;33.27;36.60
11329;BME280;5719;42.714;23.732;2022-07-25T10:10:36;94401.00;;;33.20;37.02
11329;BME280;5719;42.714;23.732;2022-07-25T10:13:05;94402.28;;;33.39;37.36
11329;BME280;5719;42.714;23.732;2022-07-25T10:15:40;94399.72;;;33.49;36.36
11329;BME280;5719;42.714;23.732;2022-07-25T10:18:10;94405.94;;;33.55;37.11
11329;BME280;5719;42.714;23.732;2022-07-25T10:20:38;94404.63;;;33.57;36.91
11329;BME280;5719;42.714;23.732;2022-07-25T10:23:16;94398.31;;;33.68;35.80
11329;BME280;5719;42.714;23.732;2022-07-25T10:25:43;94398.91;;;33.75;35.18
11329;BME280;5719;42.714;23.732;2022-07-25T10:28:16;94392.56;;;33.86;36.66
11329;BME280;5719;42.714;23.732;2022-07-25T10:30:44;94399.88;;;33.91;34.34
11329;BME280;5719;42.714;23.732;2022-07-25T10:33:14;94394.53;;;33.96;33.74
11329;BME280;5719;42.714;23.732;2022-07-25T10:35:41;94393.00;;;34.05;34.98
11329;BME280;5719;42.714;23.732;2022-07-25T10:38:08;94386.44;;;34.23;33.65
11329;BME280;5719;42.714;23.732;2022-07-25T10:40:37;94394.50;;;34.23;34.39
11329;BME280;5719;42.714;23.732;2022-07-25T10:43:10;94390.81;;;34.34;35.10
11329;BME280;5719;42.714;23.732;2022-07-25T10:45:41;94387.38;;;34.43;35.50
11329;BME280;5719;42.714;23.732;2022-07-25T10:48:10;94387.34;;;34.38;34.58
11329;BME280;5719;42.714;23.732;2022-07-25T10:50:50;94371.72;;;34.30;33.72
11329;BME280;5719;42.714;23.732;2022-07-25T10:53:30;94374.78;;;34.49;33.85
11329;BME280;5719;42.714;23.732;2022-07-25T10:56:04;94376.25;;;34.67;35.29
11329;BME280;5719;42.714;23.732;2022-07-25T10:58:46;94375.00;;;34.84;33.85
11329;BME280;5719;42.714;23.732;2022-07-25T11:01:18;94383.69;;;35.07;33.96
11329;BME280;5719;42.714;23.732;2022-07-25T11:03:48;94386.31;;;34.91;35.03
11329;BME280;5719;42.714;23.732;2022-07-25T11:06:30;94371.88;;;35.08;33.12
11329;BME280;5719;42.714;23.732;2022-07-25T11:08:57;94373.28;;;35.25;32.58
11329;BME280;5719;42.714;23.732;2022-07-25T11:11:36;94386.69;;;35.20;32.76
11329;BME280;5719;42.714;23.732;2022-07-25T11:14:12;94379.91;;;35.03;34.12
11329;BME280;5719;42.714;23.732;2022-07-25T11:16:40;94379.91;;;35.03;34.55
11329;BME280;5719;42.714;23.732;2022-07-25T11:19:15;94369.19;;;35.13;33.01
11329;BME280;5719;42.714;23.732;2022-07-25T11:21:46;94378.44;;;35.37;34.34
11329;BME280;5719;42.714;23.732;2022-07-25T11:24:14;94370.28;;;35.17;33.68
11329;BME280;5719;42.714;23.732;2022-07-25T11:26:46;94363.22;;;34.95;33.27
11329;BME280;5719;42.714;23.732;2022-07-25T11:29:18;94366.22;;;35.04;33.14
11329;BME280;5719;42.714;23.732;2022-07-25T11:31:53;94375.16;;;35.25;33.37
11329;BME280;5719;42.714;23.732;2022-07-25T11:34:23;94367.91;;;35.30;33.29
11329;BME280;5719;42.714;23.732;2022-07-25T11:36:53;94365.47;;;35.19;33.78
11329;BME280;5719;42.714;23.732;2022-07-25T11:39:25;94343.91;;;35.04;33.98
11329;BME280;5719;42.714;23.732;2022-07-25T11:42:03;94351.69;;;35.05;33.38
11329;BME280;5719;42.714;23.732;2022-07-25T11:44:32;94356.78;;;34.97;34.33
11329;BME280;5719;42.714;23.732;2022-07-25T11:47:00;94349.28;;;35.04;33.72
11329;BME280;5719;42.714;23.732;2022-07-25T11:49:28;94347.50;;;35.39;34.53
11329;BME280;5719;42.714;23.732;2022-07-25T11:51:56;94348.56;;;35.38;32.87
11329;BME280;5719;42.714;23.732;2022-07-25T11:54:23;94352.66;;;35.61;33.19
11329;BME280;5719;42.714;23.732;2022-07-25T11:56:50;94346.97;;;35.58;32.40
11329;BME280;5719;42.714;23.732;2022-07-25T11:59:19;94343.00;;;35.70;31.96
11329;BME280;5719;42.714;23.732;2022-07-25T12:01:47;94339.75;;;35.63;32.92
11329;BME280;5719;42.714;23.732;2022-07-25T12:04:16;94349.44;;;35.74;32.70
11329;BME280;5719;42.714;23.732;2022-07-25T12:06:46;94342.38;;;35.43;32.81
11329;BME280;5719;42.714;23.732;2022-07-25T12:09:16;94343.97;;;35.24;32.21
11329;BME280;5719;42.714;23.732;2022-07-25T12:11:43;94346.63;;;35.14;32.28
11329;BME280;5719;42.714;23.732;2022-07-25T12:14:11;94343.13;;;35.13;32.29
11329;BME280;5719;42.714;23.732;2022-07-25T12:16:39;94345.59;;;35.25;32.38
11329;BME280;5719;42.714;23.732;2022-07-25T12:19:09;94345.34;;;35.26;31.60
11329;BME280;5719;42.714;23.732;2022-07-25T12:21:43;94323.06;;;35.61;31.03
11329;BME280;5719;42.714;23.732;2022-07-25T12:24:27;94321.16;;;35.57;30.44
11329;BME280;5719;42.714;23.732;2022-07-25T12:26:54;94317.69;;;35.61;30.60
11329;BME280;5719;42.714;23.732;2022-07-25T12:29:22;94318.25;;;35.73;30.92
11329;BME280;5719;42.714;23.732;2022-07-25T12:31:49;94309.88;;;35.80;30.89
11329;BME280;5719;42.714;23.732;2022-07-25T12:34:16;94314.72;;;35.83;31.02
11329;BME280;5719;42.714;23.732;2022-07-25T12:36:43;94306.94;;;35.76;30.88
11329;BME280;5719;42.714;23.732;2022-07-25T12:39:10;94313.38;;;35.75;32.08
11329;BME280;5719;42.714;23.732;2022-07-25T12:41:40;94321.91;;;35.27;31.61
11329;BME280;5719;42.714;23.732;2022-07-25T12:44:07;94318.75;;;34.63;32.38
11329;BME280;5719;42.714;23.732;2022-07-25T12:46:35;94318.63;;;34.37;32.73
11329;BME280;5719;42.714;23.732;2022-07-25T12:49:04;94311.63;;;34.31;33.51
11329;BME280;5719;42.714;23.732;2022-07-25T12:51:31;94303.84;;;34.40;32.98
11329;BME280;5719;42.714;23.732;2022-07-25T12:53:58;94302.13;;;34.66;33.04
11329;BME280;5719;42.714;23.732;2022-07-25T12:56:26;94301.13;;;34.92;32.45
11329;BME280;5719;42.714;23.732;2022-07-25T12:58:54;94296.13;;;35.21;31.01
11329;BME280;5719;42.714;23.732;2022-07-25T13:01:22;94301.50;;;35.31;31.53
11329;BME280;5719;42.714;23.732;2022-07-25T13:03:49;94300.19;;;35.33;31.51
11329;BME280;5719;42.714;23.732;2022-07-25T13:30:29;94272.47;;;35.58;31.26
11329;BME280;5719;42.714;23.732;2022-07-25T13:32:56;94275.16;;;35.58;30.75
11329;BME280;5719;42.714;23.732;2022-07-25T13:35:23;94275.72;;;35.75;30.74
11329;BME280;5719;42.714;23.732;2022-07-25T13:37:50;94271.66;;;35.83;30.90
11329;BME280;5719;42.714;23.732;2022-07-25T13:40:17;94274.59;;;36.02;30.77
11329;BME280;5719;42.714;23.732;2022-07-25T13:42:44;94271.91;;;36.02;30.76
11329;BME280;5719;42.714;23.732;2022-07-25T13:45:21;94270.59;;;35.94;29.80
11329;BME280;5719;42.714;23.732;2022-07-25T13:48:14;94284.34;;;35.77;29.77
11329;BME280;5719;42.714;23.732;2022-07-25T13:50:41;94273.59;;;35.62;30.09
11329;BME280;5719;42.714;23.732;2022-07-25T13:53:08;94285.66;;;35.55;30.35
11329;BME280;5719;42.714;23.732;2022-07-25T13:59:10;94273.78;;;35.20;30.71